Wool, United Kingdom
Current Conditions -  °F | °C
As of 11:20 AM on Thursday 18 Dec 2014 (Local Time) from EGHH Reporting Station
Broken Clouds Broken Clouds  
Wind Chill: 55°   Ceiling: 1300
Heat Index: 55°   Visibility: 6mi
Dew Point: 50°   Wind: 20mph
Humidity: 82%   Direction: 260°W
Pressure: 29.91"   Gusts: NA
Location:  50.68°N, 2.22°W
Report Text: EGHH 181120Z 26017KT 9999 BKN013 13/10 Q1013
Loading
Personal Weather Stations






























Interactive Weather Map New forecast layout! Learn more

10-Day Weather Forecast

Advertisements
Track Severe Weather on mobile